Terminal Aerodrome Forecast
Issued by NWS

Home | Current Version | Previous Version | Text Only | Print | Product List | Glossary On
Versions: 1 2 3 4 5 6 7 8 9 10 11 12 13 14 15 16 17 18 19 20 21 22 23 24 25 26 27 28 29 30
000
FTUS41 KOKX 281531 AAB
TAFHPN
TAF AMD
KHPN 281531Z 2816/2912 31008G15KT P6SM FEW040
     FM281800 29010G16KT P6SM FEW040 FEW200
     FM282200 27006KT P6SM FEW060
     FM290000 26005KT P6SM FEW060 FEW200
      AMD NOT SKED=

USA.gov is the U.S. government's official web portal to all federal, state and local government web resources and services.